sensor_id;sensor_type;location;lat;lon;timestamp;pressure;altitude;pressure_sealevel;temperature;humidity
17505;BME280;8870;50.950;11.762;2023-06-24T00:01:45;99580.97;;;14.01;100.00
17505;BME280;8870;50.950;11.762;2023-06-24T00:07:03;99582.97;;;13.99;100.00
17505;BME280;8870;50.950;11.762;2023-06-24T00:12:37;99596.13;;;13.94;100.00
17505;BME280;8870;50.950;11.762;2023-06-24T00:17:59;99587.63;;;13.89;100.00
17505;BME280;8870;50.950;11.762;2023-06-24T00:23:31;99588.09;;;13.84;100.00
17505;BME280;8870;50.950;11.762;2023-06-24T00:28:52;99582.13;;;13.80;100.00
17505;BME280;8870;50.950;11.762;2023-06-24T00:34:24;99578.03;;;13.76;100.00
17505;BME280;8870;50.950;11.762;2023-06-24T00:39:43;99580.03;;;13.74;100.00
17505;BME280;8870;50.950;11.762;2023-06-24T00:45:17;99587.78;;;13.69;100.00
17505;BME280;8870;50.950;11.762;2023-06-24T00:50:36;99580.25;;;13.63;100.00
17505;BME280;8870;50.950;11.762;2023-06-24T00:56:07;99569.34;;;13.54;100.00
17505;BME280;8870;50.950;11.762;2023-06-24T01:01:33;99561.50;;;13.51;100.00
17505;BME280;8870;50.950;11.762;2023-06-24T01:07:07;99571.63;;;13.49;100.00
17505;BME280;8870;50.950;11.762;2023-06-24T01:12:24;99574.50;;;13.48;100.00
17505;BME280;8870;50.950;11.762;2023-06-24T01:18:03;99572.25;;;13.43;100.00
17505;BME280;8870;50.950;11.762;2023-06-24T01:23:56;99569.69;;;13.41;100.00
17505;BME280;8870;50.950;11.762;2023-06-24T01:29:49;99569.09;;;13.38;100.00
17505;BME280;8870;50.950;11.762;2023-06-24T01:35:16;99560.16;;;13.37;100.00
17505;BME280;8870;50.950;11.762;2023-06-24T01:40:55;99556.56;;;13.37;100.00
17505;BME280;8870;50.950;11.762;2023-06-24T01:46:21;99561.16;;;13.36;100.00
17505;BME280;8870;50.950;11.762;2023-06-24T01:51:57;99548.44;;;13.37;100.00
17505;BME280;8870;50.950;11.762;2023-06-24T01:57:18;99536.09;;;13.34;100.00
17505;BME280;8870;50.950;11.762;2023-06-24T02:02:53;99538.94;;;13.33;100.00
17505;BME280;8870;50.950;11.762;2023-06-24T02:08:15;99538.38;;;13.29;100.00
17505;BME280;8870;50.950;11.762;2023-06-24T02:13:48;99523.59;;;13.23;100.00
17505;BME280;8870;50.950;11.762;2023-06-24T02:19:07;99531.03;;;13.21;100.00
17505;BME280;8870;50.950;11.762;2023-06-24T02:24:43;99526.63;;;13.20;100.00
17505;BME280;8870;50.950;11.762;2023-06-24T02:30:04;99533.88;;;13.20;100.00
17505;BME280;8870;50.950;11.762;2023-06-24T02:35:36;99517.81;;;13.18;100.00
17505;BME280;8870;50.950;11.762;2023-06-24T02:40:59;99520.81;;;13.15;100.00
17505;BME280;8870;50.950;11.762;2023-06-24T02:46:32;99516.00;;;13.09;100.00
17505;BME280;8870;50.950;11.762;2023-06-24T02:51:51;99514.59;;;13.05;100.00
17505;BME280;8870;50.950;11.762;2023-06-24T02:57:25;99525.88;;;13.00;100.00
17505;BME280;8870;50.950;11.762;2023-06-24T03:03:04;99529.03;;;12.95;100.00
17505;BME280;8870;50.950;11.762;2023-06-24T03:08:37;99534.00;;;12.90;100.00
17505;BME280;8870;50.950;11.762;2023-06-24T03:14:06;99538.88;;;12.87;100.00
17505;BME280;8870;50.950;11.762;2023-06-24T03:19:38;99552.25;;;12.88;100.00
17505;BME280;8870;50.950;11.762;2023-06-24T03:25:08;99558.69;;;12.87;100.00
17505;BME280;8870;50.950;11.762;2023-06-24T03:30:30;99554.56;;;12.83;100.00
17505;BME280;8870;50.950;11.762;2023-06-24T03:36:02;99556.72;;;12.79;100.00
17505;BME280;8870;50.950;11.762;2023-06-24T03:41:21;99564.13;;;12.77;100.00
17505;BME280;8870;50.950;11.762;2023-06-24T03:46:55;99570.69;;;12.75;100.00
17505;BME280;8870;50.950;11.762;2023-06-24T03:52:16;99573.66;;;12.72;100.00
17505;BME280;8870;50.950;11.762;2023-06-24T03:57:47;99575.50;;;12.71;100.00
17505;BME280;8870;50.950;11.762;2023-06-24T04:03:10;99580.47;;;12.76;100.00
17505;BME280;8870;50.950;11.762;2023-06-24T04:08:42;99591.72;;;12.81;100.00
17505;BME280;8870;50.950;11.762;2023-06-24T04:14:04;99599.38;;;12.86;100.00
17505;BME280;8870;50.950;11.762;2023-06-24T04:19:37;99598.94;;;12.90;100.00
17505;BME280;8870;50.950;11.762;2023-06-24T04:25:09;99599.94;;;12.89;100.00
17505;BME280;8870;50.950;11.762;2023-06-24T04:30:28;99606.06;;;12.91;100.00
17505;BME280;8870;50.950;11.762;2023-06-24T04:36:04;99617.28;;;12.97;100.00
17505;BME280;8870;50.950;11.762;2023-06-24T04:41:22;99634.47;;;13.05;100.00
17505;BME280;8870;50.950;11.762;2023-06-24T04:46:54;99642.56;;;13.15;100.00
17505;BME280;8870;50.950;11.762;2023-06-24T04:52:15;99649.78;;;13.24;100.00
17505;BME280;8870;50.950;11.762;2023-06-24T04:57:47;99654.63;;;13.31;100.00
17505;BME280;8870;50.950;11.762;2023-06-24T05:03:06;99658.59;;;13.36;100.00
17505;BME280;8870;50.950;11.762;2023-06-24T05:08:39;99668.72;;;13.44;100.00
17505;BME280;8870;50.950;11.762;2023-06-24T05:13:58;99675.22;;;13.51;100.00
17505;BME280;8870;50.950;11.762;2023-06-24T05:19:29;99687.31;;;13.57;100.00
17505;BME280;8870;50.950;11.762;2023-06-24T05:25:02;99696.09;;;13.69;100.00
17505;BME280;8870;50.950;11.762;2023-06-24T05:30:21;99705.16;;;13.78;100.00
17505;BME280;8870;50.950;11.762;2023-06-24T05:35:52;99708.53;;;13.90;100.00
17505;BME280;8870;50.950;11.762;2023-06-24T05:41:12;99715.47;;;14.02;100.00
17505;BME280;8870;50.950;11.762;2023-06-24T05:46:44;99711.91;;;14.20;100.00
17505;BME280;8870;50.950;11.762;2023-06-24T05:52:02;99716.50;;;14.37;100.00
17505;BME280;8870;50.950;11.762;2023-06-24T05:57:36;99725.50;;;14.56;100.00
17505;BME280;8870;50.950;11.762;2023-06-24T06:02:55;99732.47;;;14.76;100.00
17505;BME280;8870;50.950;11.762;2023-06-24T06:08:26;99738.44;;;14.98;100.00
17505;BME280;8870;50.950;11.762;2023-06-24T06:13:47;99756.34;;;15.09;100.00
17505;BME280;8870;50.950;11.762;2023-06-24T06:19:18;99743.63;;;15.09;100.00
17505;BME280;8870;50.950;11.762;2023-06-24T06:24:37;99725.16;;;15.13;100.00
17505;BME280;8870;50.950;11.762;2023-06-24T06:30:13;99684.72;;;15.02;100.00
17505;BME280;8870;50.950;11.762;2023-06-24T06:35:32;99641.69;;;15.15;100.00
17505;BME280;8870;50.950;11.762;2023-06-24T06:41:07;99639.03;;;15.23;100.00
17505;BME280;8870;50.950;11.762;2023-06-24T06:46:29;99567.03;;;15.11;100.00
17505;BME280;8870;50.950;11.762;2023-06-24T06:52:02;99511.91;;;15.19;100.00
17505;BME280;8870;50.950;11.762;2023-06-24T06:57:25;99489.19;;;15.20;100.00
17505;BME280;8870;50.950;11.762;2023-06-24T07:03:00;99456.25;;;15.15;100.00
17505;BME280;8870;50.950;11.762;2023-06-24T07:08:18;99444.75;;;15.29;100.00
17505;BME280;8870;50.950;11.762;2023-06-24T07:13:49;99458.88;;;15.49;100.00
17505;BME280;8870;50.950;11.762;2023-06-24T07:19:10;99454.63;;;15.63;100.00
17505;BME280;8870;50.950;11.762;2023-06-24T07:24:42;99479.13;;;15.80;100.00
17505;BME280;8870;50.950;11.762;2023-06-24T07:30:00;99450.25;;;15.95;100.00
17505;BME280;8870;50.950;11.762;2023-06-24T07:35:36;99421.53;;;16.01;100.00
17505;BME280;8870;50.950;11.762;2023-06-24T07:40:55;99404.69;;;16.06;100.00
17505;BME280;8870;50.950;11.762;2023-06-24T07:46:27;99369.38;;;16.14;100.00
17505;BME280;8870;50.950;11.762;2023-06-24T07:51:47;99377.47;;;16.30;100.00
17505;BME280;8870;50.950;11.762;2023-06-24T07:57:19;99378.81;;;16.35;100.00
17505;BME280;8870;50.950;11.762;2023-06-24T08:02:37;99393.72;;;16.47;100.00
17505;BME280;8870;50.950;11.762;2023-06-24T08:08:10;99392.72;;;16.48;100.00
17505;BME280;8870;50.950;11.762;2023-06-24T08:13:29;99385.88;;;16.60;100.00
17505;BME280;8870;50.950;11.762;2023-06-24T08:19:00;99349.28;;;16.63;100.00
17505;BME280;8870;50.950;11.762;2023-06-24T08:24:20;99352.94;;;16.78;100.00
17505;BME280;8870;50.950;11.762;2023-06-24T08:30:07;99327.56;;;16.86;100.00
17505;BME280;8870;50.950;11.762;2023-06-24T08:35:26;99302.31;;;17.01;100.00
17505;BME280;8870;50.950;11.762;2023-06-24T08:40:59;99303.13;;;17.24;100.00
17505;BME280;8870;50.950;11.762;2023-06-24T08:52:52;99283.63;;;17.36;100.00
17505;BME280;8870;50.950;11.762;2023-06-24T08:58:13;99276.44;;;17.43;100.00
17505;BME280;8870;50.950;11.762;2023-06-24T09:03:44;99271.00;;;17.58;100.00
17505;BME280;8870;50.950;11.762;2023-06-24T09:09:02;99262.38;;;17.69;100.00
17505;BME280;8870;50.950;11.762;2023-06-24T09:14:37;99262.94;;;17.80;100.00
17505;BME280;8870;50.950;11.762;2023-06-24T09:20:04;99262.88;;;18.03;100.00
17505;BME280;8870;50.950;11.762;2023-06-24T09:25:36;99260.16;;;18.03;100.00
17505;BME280;8870;50.950;11.762;2023-06-24T09:31:07;99262.09;;;18.09;100.00
17505;BME280;8870;50.950;11.762;2023-06-24T09:36:43;99258.31;;;18.25;100.00
17505;BME280;8870;50.950;11.762;2023-06-24T09:42:03;99241.25;;;18.53;100.00
17505;BME280;8870;50.950;11.762;2023-06-24T09:47:38;99236.16;;;18.72;100.00
17505;BME280;8870;50.950;11.762;2023-06-24T09:52:57;99247.06;;;18.87;100.00
17505;BME280;8870;50.950;11.762;2023-06-24T09:58:32;99241.84;;;18.92;100.00
17505;BME280;8870;50.950;11.762;2023-06-24T10:03:53;99243.31;;;19.09;100.00
17505;BME280;8870;50.950;11.762;2023-06-24T10:09:26;99240.53;;;19.31;100.00
17505;BME280;8870;50.950;11.762;2023-06-24T10:14:44;99234.53;;;19.43;100.00
17505;BME280;8870;50.950;11.762;2023-06-24T10:20:26;99226.59;;;19.54;100.00
17505;BME280;8870;50.950;11.762;2023-06-24T10:25:47;99226.34;;;19.78;100.00
17505;BME280;8870;50.950;11.762;2023-06-24T10:31:19;99229.81;;;19.93;100.00
17505;BME280;8870;50.950;11.762;2023-06-24T10:36:39;99222.06;;;19.97;100.00
17505;BME280;8870;50.950;11.762;2023-06-24T10:42:37;99225.44;;;20.06;100.00
17505;BME280;8870;50.950;11.762;2023-06-24T10:47:56;99223.00;;;20.24;100.00
17505;BME280;8870;50.950;11.762;2023-06-24T10:53:29;99226.38;;;20.26;100.00
17505;BME280;8870;50.950;11.762;2023-06-24T10:58:55;99210.22;;;20.38;100.00
17505;BME280;8870;50.950;11.762;2023-06-24T11:04:27;99203.47;;;20.47;100.00
17505;BME280;8870;50.950;11.762;2023-06-24T11:09:58;99193.44;;;20.68;100.00
17505;BME280;8870;50.950;11.762;2023-06-24T11:15:29;99190.53;;;20.97;100.00
17505;BME280;8870;50.950;11.762;2023-06-24T11:20:47;99193.06;;;21.05;100.00
17505;BME280;8870;50.950;11.762;2023-06-24T11:26:22;99178.31;;;21.06;100.00
17505;BME280;8870;50.950;11.762;2023-06-24T11:31:41;99186.31;;;21.34;100.00
17505;BME280;8870;50.950;11.762;2023-06-24T11:37:13;99178.72;;;21.36;100.00
17505;BME280;8870;50.950;11.762;2023-06-24T11:42:35;99181.22;;;21.51;100.00
17505;BME280;8870;50.950;11.762;2023-06-24T11:48:10;99174.47;;;21.61;100.00
17505;BME280;8870;50.950;11.762;2023-06-24T11:53:40;99164.75;;;21.65;100.00
17505;BME280;8870;50.950;11.762;2023-06-24T11:59:26;99174.19;;;21.76;100.00
17505;BME280;8870;50.950;11.762;2023-06-24T12:04:44;99168.91;;;21.88;100.00
17505;BME280;8870;50.950;11.762;2023-06-24T12:10:16;99167.59;;;21.97;100.00
17505;BME280;8870;50.950;11.762;2023-06-24T12:15:37;99157.78;;;22.21;100.00
17505;BME280;8870;50.950;11.762;2023-06-24T12:21:08;99158.56;;;22.28;100.00
17505;BME280;8870;50.950;11.762;2023-06-24T12:26:39;99154.94;;;22.41;100.00
17505;BME280;8870;50.950;11.762;2023-06-24T12:32:01;99148.81;;;22.46;100.00
17505;BME280;8870;50.950;11.762;2023-06-24T12:37:32;99150.22;;;22.55;100.00
17505;BME280;8870;50.950;11.762;2023-06-24T12:42:52;99149.03;;;22.70;100.00
17505;BME280;8870;50.950;11.762;2023-06-24T12:48:26;99146.59;;;22.87;100.00
17505;BME280;8870;50.950;11.762;2023-06-24T12:53:45;99143.88;;;23.05;100.00
17505;BME280;8870;50.950;11.762;2023-06-24T12:59:17;99137.25;;;23.20;100.00
17505;BME280;8870;50.950;11.762;2023-06-24T13:04:38;99131.19;;;23.30;100.00
17505;BME280;8870;50.950;11.762;2023-06-24T13:10:10;99132.59;;;23.39;100.00
17505;BME280;8870;50.950;11.762;2023-06-24T13:15:29;99133.75;;;23.68;100.00
17505;BME280;8870;50.950;11.762;2023-06-24T13:21:03;99133.19;;;23.78;100.00
17505;BME280;8870;50.950;11.762;2023-06-24T13:26:36;99139.41;;;23.92;100.00
17505;BME280;8870;50.950;11.762;2023-06-24T13:31:55;99126.66;;;24.28;100.00
17505;BME280;8870;50.950;11.762;2023-06-24T13:37:31;99121.19;;;24.52;100.00
17505;BME280;8870;50.950;11.762;2023-06-24T13:42:50;99117.56;;;24.70;100.00
17505;BME280;8870;50.950;11.762;2023-06-24T13:48:09;99116.63;;;25.24;100.00
17505;BME280;8870;50.950;11.762;2023-06-24T13:53:44;99115.31;;;25.27;92.89
17505;BME280;8870;50.950;11.762;2023-06-24T13:59:02;99111.47;;;25.28;100.00
17505;BME280;8870;50.950;11.762;2023-06-24T14:04:34;99103.69;;;25.48;85.29
17505;BME280;8870;50.950;11.762;2023-06-24T14:09:55;99100.22;;;25.41;91.14
17505;BME280;8870;50.950;11.762;2023-06-24T14:15:26;99098.31;;;25.82;93.18
17505;BME280;8870;50.950;11.762;2023-06-24T14:20:44;99105.50;;;25.83;100.00
17505;BME280;8870;50.950;11.762;2023-06-24T14:26:17;99086.38;;;26.52;87.97
17505;BME280;8870;50.950;11.762;2023-06-24T14:31:36;99082.19;;;26.66;100.00
17505;BME280;8870;50.950;11.762;2023-06-24T14:37:07;99088.47;;;26.44;70.17
17505;BME280;8870;50.950;11.762;2023-06-24T14:42:28;99068.97;;;26.68;96.83
17505;BME280;8870;50.950;11.762;2023-06-24T14:47:59;99076.00;;;26.42;84.71
17505;BME280;8870;50.950;11.762;2023-06-24T14:53:17;99069.91;;;26.91;98.38
17505;BME280;8870;50.950;11.762;2023-06-24T14:58:54;99059.13;;;27.51;90.00
17505;BME280;8870;50.950;11.762;2023-06-24T15:04:13;99061.72;;;28.07;96.65
17505;BME280;8870;50.950;11.762;2023-06-24T15:09:44;99054.09;;;27.92;71.65
17505;BME280;8870;50.950;11.762;2023-06-24T15:15:05;99052.44;;;27.69;80.69
17505;BME280;8870;50.950;11.762;2023-06-24T15:20:39;99046.22;;;27.84;71.61
17505;BME280;8870;50.950;11.762;2023-06-24T15:25:57;99045.41;;;27.83;91.32
17505;BME280;8870;50.950;11.762;2023-06-24T15:31:32;99040.09;;;28.32;76.24
17505;BME280;8870;50.950;11.762;2023-06-24T15:36:50;99036.31;;;28.75;91.96
17505;BME280;8870;50.950;11.762;2023-06-24T15:42:21;99034.47;;;28.91;70.97
17505;BME280;8870;50.950;11.762;2023-06-24T15:47:42;99021.88;;;29.16;79.26
17505;BME280;8870;50.950;11.762;2023-06-24T15:53:14;99021.28;;;28.71;62.65
17505;BME280;8870;50.950;11.762;2023-06-24T15:58:32;99023.31;;;28.49;77.25
17505;BME280;8870;50.950;11.762;2023-06-24T16:04:06;99022.75;;;28.14;60.87
17505;BME280;8870;50.950;11.762;2023-06-24T16:09:24;99006.97;;;28.14;76.59
17505;BME280;8870;50.950;11.762;2023-06-24T16:14:55;99013.47;;;28.30;70.35
17505;BME280;8870;50.950;11.762;2023-06-24T16:20:22;99014.13;;;28.43;65.86
17505;BME280;8870;50.950;11.762;2023-06-24T16:25:54;99004.53;;;28.94;70.61
17505;BME280;8870;50.950;11.762;2023-06-24T16:31:12;99002.75;;;29.25;81.70
17505;BME280;8870;50.950;11.762;2023-06-24T16:36:46;99001.63;;;29.21;67.20
17505;BME280;8870;50.950;11.762;2023-06-24T16:42:04;99010.03;;;28.88;63.46
17505;BME280;8870;50.950;11.762;2023-06-24T16:47:36;98992.06;;;28.21;65.36
17505;BME280;8870;50.950;11.762;2023-06-24T16:52:57;98997.56;;;28.53;69.67
17505;BME280;8870;50.950;11.762;2023-06-24T16:58:28;98991.63;;;28.34;62.64
17505;BME280;8870;50.950;11.762;2023-06-24T17:03:46;98986.63;;;28.36;70.69
17505;BME280;8870;50.950;11.762;2023-06-24T17:09:20;98991.72;;;28.12;68.60
17505;BME280;8870;50.950;11.762;2023-06-24T17:14:38;98985.75;;;27.98;76.76
17505;BME280;8870;50.950;11.762;2023-06-24T17:20:09;98979.25;;;28.09;68.39
17505;BME280;8870;50.950;11.762;2023-06-24T17:25:45;98971.84;;;28.20;70.80
17505;BME280;8870;50.950;11.762;2023-06-24T17:31:03;98975.69;;;28.19;78.75
17505;BME280;8870;50.950;11.762;2023-06-24T17:36:34;98976.19;;;28.11;68.23
17505;BME280;8870;50.950;11.762;2023-06-24T17:41:55;98986.69;;;28.09;76.32
17505;BME280;8870;50.950;11.762;2023-06-24T17:47:27;98980.50;;;28.02;73.12
17505;BME280;8870;50.950;11.762;2023-06-24T17:52:45;98976.66;;;28.03;80.90
17505;BME280;8870;50.950;11.762;2023-06-24T17:58:19;98971.00;;;27.92;74.54
17505;BME280;8870;50.950;11.762;2023-06-24T18:03:38;98971.69;;;27.77;84.44
17505;BME280;8870;50.950;11.762;2023-06-24T18:09:11;98968.91;;;27.50;77.56
17505;BME280;8870;50.950;11.762;2023-06-24T18:14:34;98981.56;;;27.23;90.28
17505;BME280;8870;50.950;11.762;2023-06-24T18:20:07;98968.09;;;26.88;91.16
17505;BME280;8870;50.950;11.762;2023-06-24T18:25:26;98965.97;;;26.56;99.21
17505;BME280;8870;50.950;11.762;2023-06-24T18:31:00;98976.53;;;26.25;94.89
17505;BME280;8870;50.950;11.762;2023-06-24T18:36:31;98965.44;;;25.91;100.00
17505;BME280;8870;50.950;11.762;2023-06-24T18:41:49;98969.06;;;25.62;100.00
17505;BME280;8870;50.950;11.762;2023-06-24T18:47:23;98967.47;;;25.26;100.00
17505;BME280;8870;50.950;11.762;2023-06-24T18:52:41;98978.94;;;24.93;100.00
17505;BME280;8870;50.950;11.762;2023-06-24T18:58:12;98979.31;;;24.61;100.00
17505;BME280;8870;50.950;11.762;2023-06-24T19:03:33;98968.88;;;24.40;100.00
17505;BME280;8870;50.950;11.762;2023-06-24T19:09:05;98970.41;;;24.12;100.00
17505;BME280;8870;50.950;11.762;2023-06-24T19:14:23;98957.88;;;23.85;100.00
17505;BME280;8870;50.950;11.762;2023-06-24T19:19:57;98959.47;;;23.63;100.00
17505;BME280;8870;50.950;11.762;2023-06-24T19:25:16;98960.44;;;23.38;100.00
17505;BME280;8870;50.950;11.762;2023-06-24T19:30:51;98964.72;;;23.15;100.00
17505;BME280;8870;50.950;11.762;2023-06-24T19:36:25;98969.84;;;22.93;100.00
17505;BME280;8870;50.950;11.762;2023-06-24T19:41:43;98973.66;;;22.73;100.00
17505;BME280;8870;50.950;11.762;2023-06-24T19:47:16;98978.78;;;22.44;100.00
17505;BME280;8870;50.950;11.762;2023-06-24T19:52:37;98974.44;;;22.30;100.00
17505;BME280;8870;50.950;11.762;2023-06-24T19:58:09;98978.44;;;22.09;100.00
17505;BME280;8870;50.950;11.762;2023-06-24T20:03:27;98972.22;;;21.88;100.00
17505;BME280;8870;50.950;11.762;2023-06-24T20:09:02;98970.31;;;21.63;100.00
17505;BME280;8870;50.950;11.762;2023-06-24T20:14:20;98977.75;;;21.43;100.00
17505;BME280;8870;50.950;11.762;2023-06-24T20:19:51;98977.22;;;21.20;100.00
17505;BME280;8870;50.950;11.762;2023-06-24T20:25:12;98973.69;;;21.00;100.00
17505;BME280;8870;50.950;11.762;2023-06-24T20:30:43;98972.28;;;20.77;100.00
17505;BME280;8870;50.950;11.762;2023-06-24T20:36:03;98973.78;;;20.59;100.00
17505;BME280;8870;50.950;11.762;2023-06-24T20:41:37;98965.19;;;20.42;100.00
17505;BME280;8870;50.950;11.762;2023-06-24T20:46:55;98965.41;;;20.27;100.00
17505;BME280;8870;50.950;11.762;2023-06-24T20:52:26;98959.72;;;20.09;100.00
17505;BME280;8870;50.950;11.762;2023-06-24T20:57:47;98957.59;;;19.91;100.00
17505;BME280;8870;50.950;11.762;2023-06-24T21:03:19;98962.38;;;19.68;100.00
17505;BME280;8870;50.950;11.762;2023-06-24T21:08:37;98954.16;;;19.55;100.00
17505;BME280;8870;50.950;11.762;2023-06-24T21:14:11;98953.25;;;19.41;100.00
17505;BME280;8870;50.950;11.762;2023-06-24T21:19:29;98948.38;;;19.30;100.00
17505;BME280;8870;50.950;11.762;2023-06-24T21:25:00;98964.28;;;19.13;100.00
17505;BME280;8870;50.950;11.762;2023-06-24T21:30:28;98963.44;;;19.05;100.00
17505;BME280;8870;50.950;11.762;2023-06-24T21:36:01;98958.09;;;18.90;100.00
17505;BME280;8870;50.950;11.762;2023-06-24T21:41:20;98952.16;;;18.80;100.00
17505;BME280;8870;50.950;11.762;2023-06-24T21:46:55;98955.25;;;18.70;100.00
17505;BME280;8870;50.950;11.762;2023-06-24T21:52:13;98961.91;;;18.61;100.00
17505;BME280;8870;50.950;11.762;2023-06-24T21:57:45;98967.97;;;18.56;100.00
17505;BME280;8870;50.950;11.762;2023-06-24T22:03:06;98967.31;;;18.54;100.00
17505;BME280;8870;50.950;11.762;2023-06-24T22:08:37;98965.19;;;18.50;100.00
17505;BME280;8870;50.950;11.762;2023-06-24T22:13:55;98965.97;;;18.43;100.00
17505;BME280;8870;50.950;11.762;2023-06-24T22:19:29;98971.22;;;18.38;100.00
17505;BME280;8870;50.950;11.762;2023-06-24T22:24:54;98975.38;;;18.34;100.00
17505;BME280;8870;50.950;11.762;2023-06-24T22:30:19;98973.63;;;18.26;100.00
17505;BME280;8870;50.950;11.762;2023-06-24T22:35:49;98975.25;;;18.21;100.00
17505;BME280;8870;50.950;11.762;2023-06-24T22:41:14;98972.91;;;18.17;100.00
17505;BME280;8870;50.950;11.762;2023-06-24T22:46:32;98974.53;;;18.12;100.00
17505;BME280;8870;50.950;11.762;2023-06-24T22:52:06;98968.19;;;18.05;100.00
17505;BME280;8870;50.950;11.762;2023-06-24T22:57:24;98973.38;;;17.99;100.00
17505;BME280;8870;50.950;11.762;2023-06-24T23:02:57;98979.16;;;17.90;100.00
17505;BME280;8870;50.950;11.762;2023-06-24T23:08:19;98972.78;;;17.82;100.00
17505;BME280;8870;50.950;11.762;2023-06-24T23:13:51;98973.56;;;17.76;100.00
17505;BME280;8870;50.950;11.762;2023-06-24T23:19:10;98968.72;;;17.71;100.00
17505;BME280;8870;50.950;11.762;2023-06-24T23:24:44;98969.94;;;17.69;100.00
17505;BME280;8870;50.950;11.762;2023-06-24T23:30:15;98968.44;;;17.66;100.00
17505;BME280;8870;50.950;11.762;2023-06-24T23:35:51;98965.06;;;17.64;100.00
17505;BME280;8870;50.950;11.762;2023-06-24T23:41:13;98973.81;;;17.60;100.00
17505;BME280;8870;50.950;11.762;2023-06-24T23:46:44;98962.00;;;17.52;100.00
17505;BME280;8870;50.950;11.762;2023-06-24T23:52:04;98963.63;;;17.47;100.00
17505;BME280;8870;50.950;11.762;2023-06-24T23:57:39;98960.63;;;17.41;100.00
